createdAt,value
2023-12-03T00:02:23.369Z,79.91
2023-12-03T00:04:50.091Z,80.38
2023-12-03T00:07:17.861Z,80.13
2023-12-03T00:09:46.859Z,80.20
2023-12-03T00:12:14.614Z,80.21
2023-12-03T00:14:42.898Z,79.84
2023-12-03T00:17:10.632Z,79.79
2023-12-03T00:19:38.328Z,80.15
2023-12-03T00:22:06.425Z,80.37
2023-12-03T00:24:34.108Z,79.65
2023-12-03T00:27:02.384Z,80.36
2023-12-03T00:29:30.073Z,80.01
2023-12-03T00:31:57.713Z,79.94
2023-12-03T00:34:25.571Z,79.81
2023-12-03T00:36:53.968Z,79.73
2023-12-03T00:39:21.673Z,79.98
2023-12-03T00:41:49.444Z,80.13
2023-12-03T00:44:17.592Z,80.00
2023-12-03T00:46:45.212Z,80.30
2023-12-03T00:49:13.066Z,80.79
2023-12-03T00:51:40.897Z,80.44
2023-12-03T00:54:08.957Z,80.07
2023-12-03T00:56:36.606Z,80.17
2023-12-03T00:59:04.308Z,80.43
2023-12-03T01:01:31.949Z,80.42
2023-12-03T01:04:00.400Z,80.51
2023-12-03T01:06:28.557Z,80.21
2023-12-03T01:08:56.765Z,80.37
2023-12-03T01:11:35.128Z,80.12
2023-12-03T01:14:04.463Z,80.71
2023-12-03T01:16:32.352Z,80.61
2023-12-03T01:19:00.166Z,80.37
2023-12-03T01:21:27.954Z,80.50
2023-12-03T01:23:55.625Z,80.42
2023-12-03T01:26:23.329Z,80.25
2023-12-03T01:28:51.239Z,79.88
2023-12-03T01:31:18.885Z,80.66
2023-12-03T01:33:47.287Z,80.02
2023-12-03T01:36:15.031Z,80.15
2023-12-03T01:38:43.054Z,80.49
2023-12-03T01:41:10.739Z,80.35
2023-12-03T01:43:38.426Z,80.34
2023-12-03T01:46:06.074Z,79.99
2023-12-03T01:48:34.018Z,80.52
2023-12-03T01:51:02.549Z,80.66
2023-12-03T01:53:30.141Z,80.52
2023-12-03T01:55:58.372Z,80.35
2023-12-03T01:58:26.026Z,80.72
2023-12-03T02:00:53.669Z,80.17
2023-12-03T02:03:21.314Z,80.57
2023-12-03T02:05:49.071Z,80.44
2023-12-03T02:08:16.800Z,80.35
2023-12-03T02:10:44.425Z,80.45
2023-12-03T02:13:12.089Z,80.69
2023-12-03T02:15:39.835Z,80.59
2023-12-03T02:18:07.670Z,80.28
2023-12-03T02:20:35.419Z,80.79
2023-12-03T02:23:03.094Z,80.29
2023-12-03T02:25:30.756Z,80.46
2023-12-03T02:27:58.437Z,80.92
2023-12-03T02:30:26.328Z,80.08
2023-12-03T02:32:54.065Z,80.63
2023-12-03T02:35:21.775Z,80.43
2023-12-03T02:37:49.363Z,80.20
2023-12-03T02:40:17.020Z,80.65
2023-12-03T02:42:44.696Z,80.91
2023-12-03T02:45:12.332Z,80.45
2023-12-03T02:47:39.962Z,80.80
2023-12-03T02:50:07.635Z,80.89
2023-12-03T02:52:35.585Z,80.80
2023-12-03T02:55:03.215Z,80.29
2023-12-03T02:57:31.004Z,80.35
2023-12-03T02:59:58.745Z,80.57
2023-12-03T03:02:26.338Z,80.58
2023-12-03T03:04:54.395Z,80.13
2023-12-03T03:07:22.003Z,80.45
2023-12-03T03:09:49.684Z,80.23
2023-12-03T03:12:17.387Z,80.29
2023-12-03T03:14:44.964Z,80.41
2023-12-03T03:17:12.596Z,80.14
2023-12-03T03:19:40.261Z,80.60
2023-12-03T03:22:07.897Z,80.43
2023-12-03T03:24:35.505Z,80.48
2023-12-03T03:27:03.301Z,79.73
2023-12-03T03:29:31.219Z,80.33
2023-12-03T03:31:58.834Z,80.72
2023-12-03T03:34:26.823Z,80.61
2023-12-03T03:36:53.417Z,79.94
2023-12-03T03:39:21.104Z,80.11
2023-12-03T03:41:48.794Z,80.64
2023-12-03T03:44:16.432Z,80.03
2023-12-03T03:46:44.050Z,80.67
2023-12-03T03:49:12.190Z,80.78
2023-12-03T03:51:40.062Z,80.42
2023-12-03T03:54:08.137Z,80.13
2023-12-03T03:56:36.113Z,80.59
2023-12-03T03:59:03.722Z,80.13
2023-12-03T04:03:59.613Z,80.99
2023-12-03T04:06:28.311Z,80.11
2023-12-03T04:08:56.035Z,80.33
2023-12-03T04:11:23.705Z,80.53
2023-12-03T04:13:51.311Z,80.23
2023-12-03T04:16:18.929Z,80.44
2023-12-03T04:18:46.954Z,80.70
2023-12-03T04:21:14.712Z,80.85
2023-12-03T04:23:42.350Z,80.21
2023-12-03T04:26:09.977Z,80.42
2023-12-03T04:28:37.618Z,80.26
2023-12-03T04:31:05.286Z,80.40
2023-12-03T04:33:32.961Z,80.79
2023-12-03T04:36:00.618Z,80.70
2023-12-03T04:38:28.234Z,80.23
2023-12-03T04:40:56.292Z,80.63
2023-12-03T04:43:23.903Z,80.59
2023-12-03T04:45:51.574Z,80.85
2023-12-03T04:48:19.241Z,81.01
2023-12-03T04:50:46.854Z,80.38
2023-12-03T04:53:14.493Z,80.02
2023-12-03T04:55:42.137Z,80.72
2023-12-03T04:58:11.515Z,80.49
2023-12-03T05:00:39.147Z,80.86
2023-12-03T05:03:13.328Z,80.58
2023-12-03T05:05:40.945Z,80.66
2023-12-03T05:08:10.120Z,80.61
2023-12-03T05:10:37.773Z,80.45
2023-12-03T05:13:05.386Z,80.45
2023-12-03T05:15:33.005Z,81.01
2023-12-03T05:18:00.707Z,81.15
2023-12-03T05:20:28.470Z,80.48
2023-12-03T05:22:56.140Z,80.79
2023-12-03T05:25:25.389Z,80.70
2023-12-03T05:27:53.053Z,80.59
2023-12-03T05:30:20.689Z,80.98
2023-12-03T05:32:48.921Z,80.55
2023-12-03T05:35:17.248Z,80.78
2023-12-03T05:37:44.895Z,81.35
2023-12-03T05:40:12.542Z,80.69
2023-12-03T05:42:40.258Z,80.66
2023-12-03T05:45:08.133Z,81.36
2023-12-03T05:47:37.454Z,81.37
2023-12-03T05:50:05.858Z,80.78
2023-12-03T05:52:33.656Z,81.26
2023-12-03T05:55:01.294Z,81.19
2023-12-03T05:57:29.432Z,81.29
2023-12-03T05:59:57.098Z,81.22
2023-12-03T06:02:24.754Z,80.98
2023-12-03T06:04:52.465Z,80.77
2023-12-03T06:07:20.150Z,80.50
2023-12-03T06:09:47.866Z,81.04
2023-12-03T06:12:15.513Z,81.38
2023-12-03T06:14:43.134Z,80.53
2023-12-03T06:17:10.854Z,81.23
2023-12-03T06:19:38.620Z,81.11
2023-12-03T06:22:06.650Z,81.09
2023-12-03T06:24:34.488Z,80.86
2023-12-03T06:27:02.116Z,81.38
2023-12-03T06:29:30.021Z,81.22
2023-12-03T06:31:57.637Z,80.77
2023-12-03T06:34:25.332Z,81.26
2023-12-03T06:36:53.059Z,81.35
2023-12-03T06:39:20.756Z,81.27
2023-12-03T06:41:48.408Z,81.05
2023-12-03T06:44:18.300Z,81.33
2023-12-03T06:46:49.980Z,80.90
2023-12-03T06:49:17.721Z,80.92
2023-12-03T06:51:45.746Z,81.52
2023-12-03T06:54:13.469Z,81.52
2023-12-03T06:56:41.104Z,81.20
2023-12-03T06:59:08.859Z,81.48
2023-12-03T07:01:38.749Z,80.93
2023-12-03T07:04:06.541Z,80.65
2023-12-03T07:06:34.208Z,81.34
2023-12-03T07:09:35.796Z,81.04
2023-12-03T07:11:49.522Z,80.88
2023-12-03T07:14:17.196Z,80.77
2023-12-03T07:16:44.778Z,81.12
2023-12-03T07:19:12.439Z,81.35
2023-12-03T07:21:40.161Z,81.13
2023-12-03T07:24:08.856Z,81.31
2023-12-03T07:26:36.471Z,80.75
2023-12-03T07:29:04.186Z,81.17
2023-12-03T07:31:32.407Z,81.52
2023-12-03T07:34:00.484Z,80.94
2023-12-03T07:36:28.270Z,81.08
2023-12-03T07:38:55.894Z,80.97
2023-12-03T07:41:23.513Z,80.97
2023-12-03T07:43:51.174Z,81.21
2023-12-03T07:46:18.772Z,80.81
2023-12-03T07:48:47.021Z,81.19
2023-12-03T07:51:14.742Z,81.09
2023-12-03T07:53:42.583Z,80.54
2023-12-03T07:56:10.535Z,80.38
2023-12-03T07:58:38.232Z,81.24
2023-12-03T08:01:06.883Z,80.83
2023-12-03T08:03:34.545Z,80.81
2023-12-03T08:06:02.327Z,80.62
2023-12-03T08:08:30.054Z,80.69
2023-12-03T08:10:58.207Z,80.94
2023-12-03T08:13:26.464Z,81.25
2023-12-03T08:15:54.146Z,80.73
2023-12-03T08:18:22.141Z,80.65
2023-12-03T08:20:49.864Z,80.42
2023-12-03T08:23:17.516Z,80.77
2023-12-03T08:25:45.141Z,80.15
2023-12-03T08:28:12.843Z,80.32
2023-12-03T08:30:40.814Z,80.32
2023-12-03T08:33:08.551Z,80.07
2023-12-03T08:35:36.277Z,80.99
2023-12-03T08:38:03.962Z,80.85
2023-12-03T08:40:31.872Z,80.40
2023-12-03T08:42:59.571Z,80.54
2023-12-03T08:45:27.284Z,80.61
2023-12-03T08:47:55.404Z,79.99
2023-12-03T08:50:28.418Z,80.11
2023-12-03T08:52:56.121Z,80.13
2023-12-03T08:55:23.895Z,79.62
2023-12-03T08:57:51.855Z,80.33
2023-12-03T09:00:20.031Z,80.32
2023-12-03T09:02:47.906Z,79.63
2023-12-03T09:05:15.798Z,80.18
2023-12-03T09:07:43.586Z,80.33
2023-12-03T09:10:11.446Z,80.29
2023-12-03T09:12:40.613Z,80.65
2023-12-03T09:15:08.328Z,79.75
2023-12-03T09:17:36.155Z,79.81
2023-12-03T09:20:05.332Z,79.82
2023-12-03T09:22:36.445Z,80.45
2023-12-03T09:25:04.438Z,79.74
2023-12-03T09:27:32.329Z,80.11
2023-12-03T09:30:00.061Z,79.65
2023-12-03T09:32:27.914Z,79.85
2023-12-03T09:34:55.716Z,80.29
2023-12-03T09:37:23.465Z,80.27
2023-12-03T09:39:51.998Z,79.88
2023-12-03T09:42:20.182Z,79.84
2023-12-03T09:44:48.416Z,80.13
2023-12-03T09:47:16.135Z,79.71
2023-12-03T09:49:44.016Z,79.16
2023-12-03T09:52:12.273Z,80.02
2023-12-03T09:54:40.074Z,79.27
2023-12-03T09:57:08.096Z,78.90
2023-12-03T09:59:35.835Z,79.30
2023-12-03T10:02:04.461Z,78.96
2023-12-03T10:04:32.576Z,79.02
2023-12-03T10:07:00.784Z,79.11
2023-12-03T10:09:28.834Z,79.30
2023-12-03T10:11:56.729Z,78.38
2023-12-03T10:14:24.498Z,78.51
2023-12-03T10:16:52.255Z,78.65
2023-12-03T10:19:20.158Z,78.63
2023-12-03T10:21:49.858Z,78.08
2023-12-03T10:24:17.767Z,78.07
2023-12-03T10:26:45.651Z,76.75
2023-12-03T10:29:13.866Z,75.42
2023-12-03T10:31:41.667Z,74.78
2023-12-03T10:34:09.534Z,74.20
2023-12-03T10:36:38.683Z,73.34
2023-12-03T10:39:06.480Z,72.66
2023-12-03T10:41:34.408Z,72.14
2023-12-03T10:44:02.183Z,71.76
2023-12-03T10:46:30.046Z,72.67
2023-12-03T10:48:57.936Z,72.37
2023-12-03T10:51:26.183Z,73.26
2023-12-03T10:53:56.851Z,73.75
2023-12-03T10:56:24.755Z,74.46
2023-12-03T10:58:55.030Z,74.30
2023-12-03T11:01:22.848Z,74.49
2023-12-03T11:03:50.975Z,74.39
2023-12-03T11:06:18.920Z,74.81
2023-12-03T11:08:46.808Z,74.41
2023-12-03T11:11:14.590Z,74.00
2023-12-03T11:13:46.752Z,74.55
2023-12-03T11:16:15.838Z,74.94
2023-12-03T11:18:44.527Z,75.59
2023-12-03T11:21:12.555Z,75.68
2023-12-03T11:23:40.492Z,75.52
2023-12-03T11:26:08.269Z,75.31
2023-12-03T11:28:36.029Z,75.27
2023-12-03T11:31:03.969Z,73.97
2023-12-03T11:33:32.404Z,73.40
2023-12-03T11:36:00.282Z,72.61
2023-12-03T11:38:28.189Z,72.58
2023-12-03T11:40:56.118Z,72.55
2023-12-03T11:43:24.806Z,71.80
2023-12-03T11:45:53.026Z,71.34
2023-12-03T11:48:21.101Z,70.76
2023-12-03T11:50:49.058Z,69.49
2023-12-03T11:53:17.635Z,69.20
2023-12-03T11:55:45.858Z,69.33
2023-12-03T11:58:13.728Z,70.01
2023-12-03T12:00:42.590Z,71.54
2023-12-03T12:03:10.679Z,71.97
2023-12-03T12:05:38.655Z,73.11
2023-12-03T12:08:06.492Z,73.07
2023-12-03T12:10:34.408Z,72.58
2023-12-03T12:13:02.315Z,71.60
2023-12-03T12:15:30.299Z,71.32
2023-12-03T12:17:58.332Z,71.71
2023-12-03T12:20:26.230Z,72.35
2023-12-03T12:22:54.525Z,71.94
2023-12-03T12:25:22.349Z,72.43
2023-12-03T12:27:50.219Z,73.97
2023-12-03T12:30:27.270Z,74.34
2023-12-03T12:33:02.679Z,75.03
2023-12-03T12:35:30.509Z,74.34
2023-12-03T12:37:58.309Z,74.17
2023-12-03T12:40:27.645Z,74.13
2023-12-03T12:42:56.409Z,73.96
2023-12-03T12:45:24.787Z,73.37
2023-12-03T12:47:52.884Z,74.16
2023-12-03T12:50:21.009Z,73.74
2023-12-03T12:52:48.837Z,73.76
2023-12-03T12:55:22.574Z,74.50
2023-12-03T12:57:51.253Z,74.56
2023-12-03T13:00:19.520Z,74.21
2023-12-03T13:02:47.456Z,73.92
2023-12-03T13:05:15.583Z,73.60
2023-12-03T13:07:43.468Z,72.81
2023-12-03T13:10:11.689Z,72.22
2023-12-03T13:12:39.674Z,71.58
2023-12-03T13:15:10.260Z,70.68
2023-12-03T13:17:38.107Z,70.30
2023-12-03T13:20:06.657Z,70.27
2023-12-03T13:22:35.012Z,69.96
2023-12-03T13:25:02.986Z,69.77
2023-12-03T13:27:31.000Z,68.48
2023-12-03T13:29:59.468Z,68.26
2023-12-03T13:32:27.358Z,67.68
2023-12-03T13:34:55.312Z,67.74
2023-12-03T13:37:23.226Z,69.34
2023-12-03T13:39:53.872Z,70.54
2023-12-03T13:42:21.961Z,71.42
2023-12-03T13:44:50.264Z,72.39
2023-12-03T13:47:18.151Z,73.44
2023-12-03T13:49:46.071Z,73.76
2023-12-03T13:52:13.975Z,73.89
2023-12-03T13:54:41.981Z,73.82
2023-12-03T13:57:10.528Z,73.17
2023-12-03T13:59:38.929Z,73.28
2023-12-03T14:02:09.291Z,73.29
2023-12-03T14:04:37.165Z,72.79
2023-12-03T14:07:05.461Z,72.08
2023-12-03T14:09:33.313Z,71.34
2023-12-03T14:12:02.379Z,70.42
2023-12-03T14:14:30.295Z,69.93
2023-12-03T14:16:58.179Z,70.71
2023-12-03T14:19:26.030Z,70.76
2023-12-03T14:21:54.582Z,70.99
2023-12-03T14:24:23.159Z,71.82
2023-12-03T14:26:51.117Z,73.09
2023-12-03T14:29:19.374Z,73.35
2023-12-03T14:31:47.269Z,73.99
2023-12-03T14:34:15.251Z,74.44
2023-12-03T14:36:44.022Z,75.03
2023-12-03T14:39:12.702Z,75.44
2023-12-03T14:41:40.732Z,76.20
2023-12-03T14:44:08.627Z,76.11
2023-12-03T14:46:36.459Z,76.58
2023-12-03T14:49:04.671Z,76.82
2023-12-03T14:51:32.862Z,76.81
2023-12-03T14:54:00.920Z,77.41
2023-12-03T14:56:29.002Z,77.28
2023-12-03T14:58:57.315Z,77.63
2023-12-03T15:01:26.079Z,77.95
2023-12-03T15:03:54.239Z,77.48
2023-12-03T15:06:22.466Z,77.66
2023-12-03T15:08:50.937Z,77.96
2023-12-03T15:11:18.871Z,78.55
2023-12-03T15:13:47.096Z,78.30
2023-12-03T15:16:15.619Z,78.09
2023-12-03T15:18:44.395Z,78.43
2023-12-03T15:21:12.182Z,78.45
2023-12-03T15:23:40.193Z,78.49
2023-12-03T15:26:08.218Z,78.37
2023-12-03T15:28:36.125Z,78.74
2023-12-03T15:31:04.030Z,78.79
2023-12-03T15:33:32.290Z,78.82
2023-12-03T15:36:00.324Z,78.15
2023-12-03T15:38:28.237Z,78.56
2023-12-03T15:40:56.617Z,79.08
2023-12-03T15:43:33.735Z,78.64
2023-12-03T15:46:06.070Z,78.31
2023-12-03T15:48:34.216Z,78.31
2023-12-03T15:51:02.605Z,78.71
2023-12-03T15:53:30.465Z,78.71
2023-12-03T15:55:58.672Z,78.44
2023-12-03T15:58:26.571Z,78.72
2023-12-03T16:00:55.002Z,77.85
2023-12-03T16:03:23.320Z,78.68
2023-12-03T16:05:51.327Z,78.15
2023-12-03T16:08:22.061Z,78.11
2023-12-03T16:10:50.525Z,78.30
2023-12-03T16:13:18.829Z,77.94
2023-12-03T16:15:48.298Z,78.00
2023-12-03T16:18:16.343Z,77.60
2023-12-03T16:20:44.284Z,78.23
2023-12-03T16:23:12.516Z,77.55
2023-12-03T16:25:40.469Z,77.34
2023-12-03T16:28:08.428Z,77.07
2023-12-03T16:30:36.690Z,77.44
2023-12-03T16:33:04.613Z,77.17
2023-12-03T16:35:32.718Z,77.30
2023-12-03T16:38:02.819Z,77.12
2023-12-03T16:40:33.632Z,77.06
2023-12-03T16:43:01.714Z,76.59
2023-12-03T16:45:29.821Z,75.96
2023-12-03T16:47:58.090Z,76.39
2023-12-03T16:50:26.002Z,76.28
2023-12-03T16:52:54.697Z,75.74
2023-12-03T16:55:22.684Z,76.29
2023-12-03T16:57:50.656Z,75.63
2023-12-03T17:00:19.068Z,75.92
2023-12-03T17:02:47.977Z,75.59
2023-12-03T17:05:15.951Z,75.79
2023-12-03T17:07:43.896Z,76.39
2023-12-03T17:10:11.850Z,75.76
2023-12-03T17:12:47.075Z,75.98
2023-12-03T17:15:19.275Z,75.35
2023-12-03T17:17:47.231Z,76.37
2023-12-03T17:20:15.101Z,75.31
2023-12-03T17:22:43.015Z,75.78
2023-12-03T17:25:10.897Z,75.18
2023-12-03T17:27:38.843Z,75.57
2023-12-03T17:30:06.950Z,75.89
2023-12-03T17:32:34.967Z,75.41
2023-12-03T17:35:03.435Z,75.52
2023-12-03T17:37:31.592Z,75.42
2023-12-03T17:39:59.463Z,75.16
2023-12-03T17:42:27.947Z,75.11
2023-12-03T17:44:56.149Z,75.15
2023-12-03T17:47:24.099Z,75.45
2023-12-03T17:49:53.480Z,74.93
2023-12-03T17:52:21.593Z,75.08
2023-12-03T17:54:49.551Z,74.77
2023-12-03T17:57:17.577Z,75.17
2023-12-03T17:59:45.660Z,74.98
2023-12-03T18:02:13.694Z,74.54
2023-12-03T18:04:43.247Z,75.11
2023-12-03T18:07:11.226Z,74.85
2023-12-03T18:09:39.621Z,75.12
2023-12-03T18:12:07.874Z,74.77
2023-12-03T18:14:38.838Z,74.98
2023-12-03T18:17:07.988Z,74.46
2023-12-03T18:19:37.318Z,74.94
2023-12-03T18:22:05.314Z,75.01
2023-12-03T18:24:33.306Z,75.10
2023-12-03T18:27:01.513Z,74.67
2023-12-03T18:29:29.553Z,74.67
2023-12-03T18:31:57.384Z,74.97
2023-12-03T18:34:25.302Z,74.46
2023-12-03T18:36:53.795Z,74.98
2023-12-03T18:39:22.149Z,74.53
2023-12-03T18:41:50.210Z,74.58
2023-12-03T18:44:22.299Z,74.72
2023-12-03T18:46:50.254Z,75.29
2023-12-03T18:49:19.724Z,74.57
2023-12-03T18:51:47.813Z,74.65
2023-12-03T18:54:15.763Z,74.67
2023-12-03T18:56:43.779Z,74.40
2023-12-03T18:59:11.861Z,74.52
2023-12-03T19:01:39.830Z,74.18
2023-12-03T19:04:10.515Z,74.42
2023-12-03T19:06:39.751Z,74.10
2023-12-03T19:09:07.771Z,73.87
2023-12-03T19:11:35.568Z,73.72
2023-12-03T19:14:03.740Z,73.72
2023-12-03T19:16:31.638Z,73.91
2023-12-03T19:19:00.203Z,73.98
2023-12-03T19:21:28.353Z,74.58
2023-12-03T19:23:56.292Z,74.37
2023-12-03T19:26:24.197Z,74.07
2023-12-03T19:28:52.931Z,74.27
2023-12-03T19:31:21.106Z,74.49
2023-12-03T19:33:49.379Z,74.44
2023-12-03T19:36:17.415Z,74.50
2023-12-03T19:38:45.211Z,74.92
2023-12-03T19:41:13.077Z,74.86
2023-12-03T19:43:43.471Z,74.64
2023-12-03T19:46:11.266Z,74.63
2023-12-03T19:48:39.193Z,74.67
2023-12-03T19:51:07.308Z,75.08
2023-12-03T19:53:35.313Z,74.81
2023-12-03T19:56:04.790Z,74.54
2023-12-03T19:58:32.812Z,74.45
2023-12-03T20:01:00.770Z,74.85
2023-12-03T20:03:29.587Z,74.53
2023-12-03T20:05:59.099Z,75.41
2023-12-03T20:08:27.193Z,75.26
2023-12-03T20:10:55.177Z,75.48
2023-12-03T20:13:23.184Z,75.33
2023-12-03T20:15:51.050Z,75.07
2023-12-03T20:18:19.558Z,75.79
2023-12-03T20:20:47.586Z,75.84
2023-12-03T20:23:15.472Z,75.51
2023-12-03T20:25:44.198Z,76.06
2023-12-03T20:28:12.290Z,75.78
2023-12-03T20:30:40.158Z,75.87
2023-12-03T20:33:08.736Z,76.47
2023-12-03T20:35:36.650Z,76.13
2023-12-03T20:38:04.538Z,76.42
2023-12-03T20:40:32.458Z,76.06
2023-12-03T20:43:00.496Z,76.11
2023-12-03T20:45:28.872Z,76.38
2023-12-03T20:47:56.950Z,76.20
2023-12-03T20:50:27.021Z,76.65
2023-12-03T20:52:58.162Z,76.15
2023-12-03T20:55:26.080Z,76.05
2023-12-03T20:57:54.372Z,76.52
2023-12-03T21:00:22.474Z,76.71
2023-12-03T21:02:50.329Z,76.47
2023-12-03T21:05:20.829Z,76.56
2023-12-03T21:07:51.479Z,75.91
2023-12-03T21:10:20.227Z,76.68
2023-12-03T21:12:48.079Z,76.58
2023-12-03T21:15:16.453Z,77.21
2023-12-03T21:17:44.520Z,76.90
2023-12-03T21:20:12.413Z,76.16
2023-12-03T21:22:42.223Z,76.35
2023-12-03T21:25:10.173Z,76.38
2023-12-03T21:27:37.977Z,76.97
2023-12-03T21:30:05.814Z,77.13
2023-12-03T21:32:33.708Z,76.89
2023-12-03T21:35:02.102Z,76.64
2023-12-03T21:37:30.656Z,76.93
2023-12-03T21:39:58.514Z,76.85
2023-12-03T21:42:26.559Z,76.98
2023-12-03T21:44:55.443Z,76.86
2023-12-03T21:47:23.415Z,77.48
2023-12-03T21:49:52.648Z,76.77
2023-12-03T21:52:24.199Z,77.17
2023-12-03T21:54:53.249Z,76.94
2023-12-03T21:57:21.081Z,77.61
2023-12-03T21:59:49.838Z,77.78
2023-12-03T22:02:19.951Z,77.46
2023-12-03T22:04:48.585Z,77.57
2023-12-03T22:07:16.650Z,77.53
2023-12-03T22:09:44.677Z,77.61
2023-12-03T22:12:12.665Z,77.99
2023-12-03T22:14:40.564Z,77.67
2023-12-03T22:17:08.518Z,78.63
2023-12-03T22:19:36.353Z,78.19
2023-12-03T22:22:04.393Z,78.62
2023-12-03T22:24:33.090Z,78.83
2023-12-03T22:27:01.348Z,77.68
2023-12-03T22:29:35.654Z,78.73
2023-12-03T22:32:15.920Z,77.69
2023-12-03T22:34:47.261Z,78.68
2023-12-03T22:37:15.109Z,78.36
2023-12-03T22:39:43.188Z,78.40
2023-12-03T22:42:11.021Z,78.43
2023-12-03T22:44:41.713Z,78.59
2023-12-03T22:47:09.924Z,78.52
2023-12-03T22:49:37.699Z,78.58
2023-12-03T22:52:05.476Z,78.77
2023-12-03T22:54:33.291Z,78.72
2023-12-03T22:57:03.480Z,78.53
2023-12-03T22:59:31.323Z,78.80
2023-12-03T23:01:59.205Z,78.87
2023-12-03T23:04:26.997Z,78.65
2023-12-03T23:06:55.323Z,78.77
2023-12-03T23:09:23.047Z,78.95
2023-12-03T23:11:50.767Z,78.86
2023-12-03T23:14:18.457Z,78.51
2023-12-03T23:16:46.265Z,78.44
2023-12-03T23:19:14.236Z,78.28
2023-12-03T23:21:42.216Z,79.02
2023-12-03T23:24:10.817Z,77.96
2023-12-03T23:26:41.462Z,79.02
2023-12-03T23:29:09.656Z,78.68
2023-12-03T23:31:37.446Z,78.10
2023-12-03T23:34:05.384Z,78.51
2023-12-03T23:36:33.213Z,78.06
2023-12-03T23:39:01.839Z,77.99
2023-12-03T23:41:29.516Z,77.91
2023-12-03T23:43:57.797Z,78.50
2023-12-03T23:46:25.615Z,78.57
2023-12-03T23:48:53.478Z,78.03
2023-12-03T23:51:21.915Z,77.86
2023-12-03T23:53:49.687Z,78.37
2023-12-03T23:56:17.317Z,78.13
2023-12-03T23:58:45.005Z,78.61
